Time;durP1;ratioP1;P1;durP2;ratioP2;P2;SDS_P1;SDS_P2;PMS_P1;PMS_P2;Temp;Humidity;BMP_temperature;BMP_pressure;BME280_temperature;BME280_humidity;BME280_pressure;Samples;Min_cycle;Max_cycle;Signal;HPM_P1;HPM_P2
2022/08/17 00:00:54;;;;;;;;;2.00;1.00;;;;;17.94;67.38;99660.38;4980105;28;46358;-77
2022/08/17 00:03:39;;;;;;;;;1.33;1.33;;;;;19.01;68.08;99813.06;4980316;28;45254;-73
2022/08/17 00:06:11;;;;;;;;;2.00;1.00;;;;;17.42;67.58;99572.13;4979987;28;46194;-73
2022/08/17 00:08:45;;;;;;;;;1.00;0.00;;;;;17.73;68.15;99623.69;4980365;28;45442;-72
2022/08/17 00:11:17;;;;;;;;;1.67;1.00;;;;;16.90;68.77;99499.81;4979924;28;46189;-75
2022/08/17 00:13:47;;;;;;;;;1.00;0.00;;;;;18.63;69.42;99804.78;4979952;28;45480;-73
2022/08/17 00:16:17;;;;;;;;;2.00;1.00;;;;;17.76;69.48;99677.31;4980235;28;45364;-73
2022/08/17 00:18:44;;;;;;;;;1.67;0.67;;;;;18.06;69.51;99730.69;4980080;28;45422;-72
2022/08/17 00:21:11;;;;;;;;;0.33;0.33;;;;;17.19;69.12;99601.50;4979813;28;45585;-73
2022/08/17 00:23:37;;;;;;;;;1.00;1.00;;;;;17.36;69.43;99635.56;4979867;28;45506;-75
2022/08/17 00:26:03;;;;;;;;;0.67;0.67;;;;;18.34;69.81;99793.75;4979648;28;45468;-75
2022/08/17 00:28:28;;;;;;;;;0.67;0.67;;;;;18.23;70.21;99775.41;4980003;28;45491;-73
2022/08/17 00:30:54;;;;;;;;;1.00;1.00;;;;;18.12;69.70;99762.31;4979740;28;45523;-75
2022/08/17 00:33:24;;;;;;;;;2.00;0.67;;;;;16.96;70.30;99592.97;4979945;28;45423;-73
2022/08/17 00:35:50;;;;;;;;;0.67;0.67;;;;;17.23;70.10;99629.59;4980105;28;45337;-73
2022/08/17 00:38:17;;;;;;;;;1.00;0.67;;;;;16.51;70.40;99516.91;4978386;28;45499;-74
2022/08/17 00:40:47;;;;;;;;;2.00;1.67;;;;;18.34;70.50;99810.47;4979510;28;45499;-76
2022/08/17 00:43:16;;;;;;;;;0.67;0.67;;;;;18.28;70.34;99792.06;4979568;28;45726;-73
2022/08/17 00:45:43;;;;;;;;;1.00;0.67;;;;;16.47;70.36;99529.28;4979624;28;45372;-73
2022/08/17 00:48:09;;;;;;;;;0.67;0.67;;;;;16.21;70.05;99458.38;4979566;28;45797;-73
2022/08/17 00:50:36;;;;;;;;;1.33;1.00;;;;;16.51;70.32;99516.91;4979083;28;46277;-76
2022/08/17 00:53:03;;;;;;;;;0.67;0.67;;;;;17.10;70.63;99614.78;4961441;28;45548;-76
2022/08/17 00:55:30;;;;;;;;;2.67;1.67;;;;;16.75;70.27;99562.38;4979148;28;45570;-73
2022/08/17 00:57:59;;;;;;;;;1.00;0.67;;;;;18.16;70.24;99819.53;4979075;28;45496;-74
2022/08/17 01:00:29;;;;;;;;;1.67;1.33;;;;;17.95;70.30;99770.47;4979104;28;46422;-74
2022/08/17 01:02:58;;;;;;;;;2.00;1.00;;;;;17.55;70.45;99715.47;4979354;28;45321;-76
2022/08/17 01:05:26;;;;;;;;;1.00;1.00;;;;;16.85;70.39;99622.97;4979515;28;45265;-76
2022/08/17 01:07:54;;;;;;;;;1.67;1.67;;;;;16.19;70.74;99507.59;4978146;28;45500;-76
2022/08/17 01:10:38;;;;;;;;;1.00;1.00;;;;;16.98;71.05;99696.72;4979226;28;46326;-75
2022/08/17 01:13:05;;;;;;;;;2.33;1.67;;;;;16.48;71.32;99577.59;4979121;28;45313;-76
2022/08/17 01:15:36;;;;;;;;;0.67;0.67;;;;;16.41;70.97;99579.44;4979199;28;45424;-73
2022/08/17 01:18:04;;;;;;;;;2.00;1.00;;;;;16.56;71.10;99609.16;4979337;28;45387;-74
2022/08/17 01:20:31;;;;;;;;;0.67;0.67;;;;;17.15;71.17;99693.88;4979041;28;47027;-74
2022/08/17 01:22:57;;;;;;;;;1.33;1.33;;;;;16.79;70.86;99649.38;4977543;28;45703;-74
2022/08/17 01:25:28;;;;;;;;;1.67;1.67;;;;;16.32;71.05;99560.19;4979207;28;45524;-75
2022/08/17 01:27:54;;;;;;;;;3.00;1.00;;;;;16.52;71.11;99623.28;4979463;28;45495;-73
2022/08/17 01:30:20;;;;;;;;;1.33;1.33;;;;;17.30;71.18;99728.03;4978760;28;46389;-72
2022/08/17 01:32:46;;;;;;;;;2.00;2.00;;;;;16.37;70.99;99569.78;4978481;28;45430;-73
2022/08/17 01:35:12;;;;;;;;;0.67;0.67;;;;;15.57;70.63;99453.69;4978635;28;45326;-73
2022/08/17 01:37:41;;;;;;;;;1.33;1.33;;;;;15.72;70.77;99479.88;4978704;28;45474;-72
2022/08/17 01:40:17;;;;;;;;;0.67;0.67;;;;;17.71;70.59;99803.31;4978337;28;46024;-73
2022/08/17 01:43:09;;;;;;;;;2.00;2.00;;;;;17.24;70.29;99731.63;4977201;28;45644;-72
2022/08/17 01:45:43;;;;;;;;;2.00;1.00;;;;;15.97;70.31;99529.75;4978630;28;45509;-72
2022/08/17 01:48:10;;;;;;;;;1.00;1.00;;;;;17.32;70.73;99784.34;4978874;28;45440;-73
2022/08/17 01:50:36;;;;;;;;;1.67;1.00;;;;;16.35;70.88;99603.19;4978286;28;45401;-73
2022/08/17 01:53:10;;;;;;;;;1.67;1.67;;;;;16.80;70.91;99693.31;4978357;28;45253;-74
2022/08/17 01:55:57;;;;;;;;;2.00;2.00;;;;;17.27;71.34;99787.03;4978466;28;45459;-75
2022/08/17 01:58:23;;;;;;;;;2.00;2.00;;;;;16.48;71.60;99654.91;4978523;28;45375;-72
2022/08/17 02:00:52;;;;;;;;;3.00;1.00;;;;;16.89;70.97;99710.84;4978050;28;46196;-75
2022/08/17 02:03:18;;;;;;;;;1.00;1.00;;;;;16.58;70.97;99689.13;4960721;28;45495;-72
2022/08/17 02:05:47;;;;;;;;;1.00;1.00;;;;;17.32;70.90;99801.94;4978379;28;45461;-74
2022/08/17 02:08:13;;;;;;;;;2.00;1.67;;;;;16.22;71.97;99630.53;4977272;28;45386;-73
2022/08/17 02:10:39;;;;;;;;;1.00;1.00;;;;;15.31;72.06;99510.00;4977333;28;46130;-72
2022/08/17 02:13:05;;;;;;;;;2.00;1.33;;;;;14.88;71.58;99437.47;4976625;28;45493;-72
2022/08/17 02:15:31;;;;;;;;;1.00;0.67;;;;;16.93;72.15;99785.56;4978125;28;45313;-73
2022/08/17 02:17:57;;;;;;;;;1.00;1.00;;;;;16.99;71.79;99783.78;4977407;28;45491;-73
2022/08/17 02:20:22;;;;;;;;;2.00;2.00;;;;;16.02;71.54;99623.66;4978040;28;46529;-75
2022/08/17 02:22:49;;;;;;;;;2.00;2.00;;;;;15.60;72.20;99553.69;4976481;28;45421;-73
2022/08/17 02:25:19;;;;;;;;;1.67;1.00;;;;;16.69;72.20;99754.09;4978154;28;46147;-72
2022/08/17 02:27:45;;;;;;;;;1.67;1.00;;;;;16.86;72.34;99782.97;4960394;28;45453;-73
2022/08/17 02:30:13;;;;;;;;;1.00;1.00;;;;;15.38;72.91;99530.13;4977561;28;45499;-72
2022/08/17 02:32:39;;;;;;;;;1.00;1.00;;;;;16.18;72.97;99671.84;4960009;28;45571;-72
2022/08/17 02:35:05;;;;;;;;;2.67;2.00;;;;;16.40;72.42;99696.28;4977947;28;46061;-73
2022/08/17 02:37:31;;;;;;;;;3.00;2.00;;;;;16.91;72.43;99796.16;4976737;28;45231;-72
2022/08/17 02:39:58;;;;;;;;;1.00;1.00;;;;;16.41;71.97;99690.16;4978049;28;45384;-73
2022/08/17 02:42:30;;;;;;;;;2.00;1.00;;;;;15.67;71.79;99569.41;4977757;28;45436;-72
2022/08/17 02:44:56;;;;;;;;;1.67;1.00;;;;;15.61;71.59;99590.53;4978048;28;45571;-72
2022/08/17 02:47:23;;;;;;;;;2.00;1.00;;;;;16.84;71.94;99787.41;4977880;28;45418;-73
2022/08/17 02:49:49;;;;;;;;;2.00;2.00;;;;;15.55;71.93;99616.88;4977208;28;45571;-73
2022/08/17 02:52:14;;;;;;;;;1.67;1.67;;;;;16.22;72.09;99694.66;4977682;28;45450;-73
2022/08/17 02:54:40;;;;;;;;;2.00;2.00;;;;;15.36;71.83;99558.22;4977830;28;45312;-73
2022/08/17 02:57:06;;;;;;;;;2.00;1.00;;;;;14.84;71.29;99469.91;4977919;28;45438;-73
2022/08/17 02:59:31;;;;;;;;;1.00;1.00;;;;;15.25;71.83;99554.75;4977659;28;46133;-72
2022/08/17 03:01:57;;;;;;;;;2.00;2.00;;;;;16.38;72.15;99727.06;4977922;28;45330;-72
2022/08/17 03:04:22;;;;;;;;;1.67;1.67;;;;;15.30;71.77;99543.34;4977672;28;45593;-72
2022/08/17 03:06:48;;;;;;;;;2.67;2.00;;;;;15.36;72.13;99546.78;4977788;28;45304;-72
2022/08/17 03:09:15;;;;;;;;;1.67;1.00;;;;;16.28;71.48;99704.28;4977280;28;45596;-73
2022/08/17 03:11:42;;;;;;;;;3.00;3.00;;;;;16.34;71.60;99712.16;4976298;28;45844;-74
2022/08/17 03:14:07;;;;;;;;;2.00;1.00;;;;;15.68;71.95;99625.59;4977494;28;45320;-73
2022/08/17 03:16:33;;;;;;;;;1.33;1.00;;;;;15.14;71.92;99536.41;4976198;28;45453;-73
2022/08/17 03:18:58;;;;;;;;;1.00;1.00;;;;;15.08;72.08;99518.91;4977317;28;45764;-73
2022/08/17 03:21:24;;;;;;;;;2.67;2.00;;;;;16.29;71.87;99745.56;4977245;28;45496;-72
2022/08/17 03:23:50;;;;;;;;;1.00;1.00;;;;;15.82;72.05;99662.44;4980263;28;45217;-73
2022/08/17 03:26:15;;;;;;;;;3.00;2.00;;;;;16.38;71.62;99749.91;4981004;28;45327;-74
2022/08/17 03:28:41;;;;;;;;;3.00;2.00;;;;;15.42;72.07;99587.13;4980479;28;46404;-73
2022/08/17 03:31:07;;;;;;;;;1.33;1.33;;;;;15.57;71.91;99593.19;4980447;28;45470;-75
2022/08/17 03:33:33;;;;;;;;;1.00;0.67;;;;;15.23;72.18;99577.56;4980845;28;45459;-77
2022/08/17 03:35:58;;;;;;;;;2.00;2.00;;;;;15.62;72.07;99621.25;4980951;28;45498;-72
2022/08/17 03:38:24;;;;;;;;;2.00;2.00;;;;;15.62;72.05;99628.28;4980117;28;45886;-72
2022/08/17 03:40:51;;;;;;;;;2.00;2.00;;;;;15.36;71.58;99600.31;4980372;28;45367;-72
2022/08/17 03:43:19;;;;;;;;;2.00;1.00;;;;;16.48;71.87;99786.75;4980474;28;45237;-73
2022/08/17 03:57:06;;;;;;;;;1.67;1.67;;;;;15.76;71.20;99638.78;4980297;28;45532;-76
2022/08/17 03:59:35;;;;;;;;;1.67;1.00;;;;;16.19;71.19;99693.78;4980125;28;45442;-73
2022/08/17 04:02:10;;;;;;;;;2.00;1.67;;;;;15.76;71.10;99634.38;4980434;28;45815;-72
2022/08/17 04:04:36;;;;;;;;;2.00;2.00;;;;;16.35;71.75;99732.34;4980200;28;45337;-72
2022/08/17 04:07:03;;;;;;;;;2.33;1.00;;;;;14.89;71.65;99493.56;4980529;28;45222;-72
2022/08/17 04:09:28;;;;;;;;;1.67;1.67;;;;;15.28;71.70;99570.53;4978014;28;45431;-75
2022/08/17 04:11:54;;;;;;;;;2.00;1.33;;;;;15.83;71.68;99674.69;4978080;28;45391;-73
2022/08/17 04:14:19;;;;;;;;;2.00;2.00;;;;;16.38;71.88;99757.81;4978142;28;45429;-72
2022/08/17 04:16:45;;;;;;;;;1.67;1.00;;;;;15.84;71.88;99664.16;4978570;28;45439;-72
2022/08/17 04:19:11;;;;;;;;;1.00;1.00;;;;;15.35;71.15;99595.94;4978301;28;46312;-72
2022/08/17 04:21:37;;;;;;;;;2.00;1.00;;;;;15.48;71.33;99607.28;4975394;28;45587;-73
2022/08/17 04:24:04;;;;;;;;;3.00;2.00;;;;;15.39;71.20;99588.91;4978586;28;45365;-72
2022/08/17 04:26:29;;;;;;;;;3.00;2.00;;;;;16.56;71.43;99762.97;4978772;28;45472;-73
2022/08/17 04:28:57;;;;;;;;;1.00;1.00;;;;;16.29;70.89;99721.84;4977671;28;46316;-71
2022/08/17 04:31:24;;;;;;;;;2.00;2.00;;;;;15.67;71.04;99606.28;4977841;28;45519;-72
2022/08/17 04:33:50;;;;;;;;;1.67;1.67;;;;;15.44;70.62;99555.53;4976026;28;45783;-72
2022/08/17 04:36:16;;;;;;;;;2.00;2.00;;;;;16.15;70.84;99665.72;4977729;28;45534;-73
2022/08/17 04:38:44;;;;;;;;;3.00;2.33;;;;;15.13;70.46;99503.06;4959981;28;48021;-72
2022/08/17 04:43:57;;;;;;;;;2.00;1.33;;;;;15.07;70.97;99509.25;4977724;28;45349;-76
2022/08/17 04:46:34;;;;;;;;;3.67;2.00;;;;;15.34;71.17;99575.78;4977654;28;45324;-74
2022/08/17 04:49:05;;;;;;;;;2.67;2.00;;;;;15.82;71.58;99647.50;4973922;28;48000;-75
2022/08/17 04:51:38;;;;;;;;;0.00;0.00;;;;;15.33;71.68;99542.44;4977679;28;45551;-73
2022/08/17 04:54:07;;;;;;;;;2.33;2.00;;;;;15.20;71.63;99557.41;4978020;28;45544;-76
2022/08/17 04:56:33;;;;;;;;;3.00;2.00;;;;;15.23;71.72;99554.75;4978231;28;45456;-73
2022/08/17 04:59:03;;;;;;;;;2.33;2.00;;;;;16.00;71.51;99670.22;4977326;28;46557;-74
2022/08/17 05:01:31;;;;;;;;;2.00;2.00;;;;;16.25;71.54;99723.63;4977307;28;45797;-74
2022/08/17 05:03:59;;;;;;;;;2.00;1.33;;;;;15.52;71.28;99601.13;4977592;28;45436;-72
2022/08/17 05:06:27;;;;;;;;;1.67;1.33;;;;;15.81;71.50;99648.38;4977580;28;45455;-74
2022/08/17 05:08:54;;;;;;;;;3.00;2.00;;;;;16.51;71.41;99793.75;4974471;28;46296;-76
2022/08/17 05:11:20;;;;;;;;;2.00;2.00;;;;;16.01;71.30;99695.66;4977122;28;45459;-75
2022/08/17 05:13:48;;;;;;;;;2.00;2.00;;;;;15.89;71.52;99678.16;4977246;28;45455;-75
2022/08/17 05:16:15;;;;;;;;;4.00;3.00;;;;;15.62;71.53;99636.19;4977588;28;45382;-74
2022/08/17 05:18:41;;;;;;;;;2.00;2.00;;;;;16.41;71.39;99765.69;4976973;28;45694;-72
2022/08/17 05:21:07;;;;;;;;;3.67;3.00;;;;;15.41;71.00;99597.66;4977109;28;45674;-77
2022/08/17 05:23:34;;;;;;;;;2.00;2.00;;;;;16.29;71.29;99745.56;4977503;28;45381;-76
2022/08/17 05:26:00;;;;;;;;;2.67;2.67;;;;;15.38;71.04;99576.59;4977564;28;45452;-74
2022/08/17 05:28:26;;;;;;;;;2.00;2.00;;;;;15.77;70.89;99643.13;4976872;28;45397;-75
2022/08/17 05:30:53;;;;;;;;;4.00;3.00;;;;;15.44;71.13;99581.88;4976770;28;45581;-76
2022/08/17 05:33:25;;;;;;;;;3.00;3.00;;;;;15.65;70.67;99601.91;4959775;28;45390;-76
2022/08/17 05:35:53;;;;;;;;;4.00;3.33;;;;;15.02;70.74;99513.66;4977112;28;45317;-75
2022/08/17 05:38:21;;;;;;;;;2.00;2.00;;;;;15.42;70.58;99546.75;4976927;28;45934;-75
2022/08/17 05:40:47;;;;;;;;;2.33;2.00;;;;;16.67;70.49;99765.50;4976859;28;45427;-76
2022/08/17 05:43:22;;;;;;;;;31.50;28.75;;;;;16.39;70.50;99705.06;4976982;28;45466;-75
2022/08/17 05:46:15;;;;;;;;;7.33;6.33;;;;;16.91;70.41;99793.53;4974310;28;45628;-76
2022/08/17 05:48:44;;;;;;;;;3.00;3.00;;;;;15.86;70.16;99651.00;4976689;28;46269;-75
2022/08/17 05:51:18;;;;;;;;;2.00;2.00;;;;;16.82;70.54;99797.09;4976766;28;45522;-73
2022/08/17 05:53:55;;;;;;;;;2.00;2.00;;;;;16.86;70.54;99803.22;4974633;28;45502;-75
2022/08/17 05:56:42;;;;;;;;;5.33;4.00;;;;;15.52;70.24;99564.28;4959278;28;45597;-76
2022/08/17 05:59:40;;;;;;;;;2.00;2.00;;;;;17.10;69.88;99804.78;4974350;28;45515;-75
2022/08/17 06:02:34;;;;;;;;;3.33;2.00;;;;;17.28;69.42;99803.75;4974413;28;45487;-76
2022/08/17 06:05:24;;;;;;;;;3.00;3.00;;;;;16.69;68.56;99671.44;4976399;28;45445;-76
2022/08/17 06:08:24;;;;;;;;;3.67;3.33;;;;;15.71;68.22;99481.63;4975005;28;45519;-76
2022/08/17 06:11:24;;;;;;;;;2.00;2.00;;;;;17.02;67.77;99664.13;4974410;28;46619;-75
2022/08/17 06:13:56;;;;;;;;;2.00;2.00;;;;;18.14;67.16;99799.31;4973336;28;45503;-75
2022/08/17 06:16:31;;;;;;;;;2.33;2.33;;;;;18.44;66.46;99793.63;4976832;28;45494;-75
2022/08/17 06:19:26;;;;;;;;;3.67;2.67;;;;;17.52;66.15;99630.97;4977953;28;45531;-76
2022/08/17 06:21:54;;;;;;;;;5.67;5.00;;;;;18.98;64.59;99802.50;4977562;28;45824;-75
2022/08/17 06:24:34;;;;;;;;;4.33;3.67;;;;;18.01;64.58;99574.84;4977422;28;45496;-75
2022/08/17 06:27:30;;;;;;;;;3.33;3.00;;;;;19.95;61.38;99647.91;4978046;28;45956;-76
2022/08/17 06:30:09;;;;;;;;;8.00;5.00;;;;;21.08;59.17;99810.63;4977845;28;45503;-76
2022/08/17 06:32:42;;;;;;;;;5.33;5.00;;;;;19.61;59.68;99605.34;4976839;28;46540;-76
2022/08/17 06:35:12;;;;;;;;;7.00;4.00;;;;;19.44;59.87;99587.19;4977755;28;45424;-76
2022/08/17 06:38:06;;;;;;;;;4.00;3.00;;;;;20.85;59.69;99796.16;4977881;28;45485;-75
2022/08/17 06:40:54;;;;;;;;;3.00;3.00;;;;;21.04;59.91;99801.88;4976739;28;45333;-76
2022/08/17 06:43:44;;;;;;;;;3.00;3.00;;;;;21.53;58.57;99794.47;4977545;28;46630;-76
2022/08/17 06:46:37;;;;;;;;;1.67;1.67;;;;;21.42;57.03;99802.66;4977426;28;45488;-76
2022/08/17 06:49:24;;;;;;;;;3.00;2.00;;;;;24.53;51.78;99805.97;4976413;28;45477;-75
2022/08/17 06:51:59;;;;;;;;;4.00;3.00;;;;;24.06;50.98;99797.09;4977645;28;45401;-75
2022/08/17 06:54:37;;;;;;;;;3.00;3.00;;;;;24.34;50.75;99797.75;4977472;28;46660;-75
2022/08/17 06:57:36;;;;;;;;;4.33;3.00;;;;;24.06;48.89;99671.69;4976554;28;45329;-76
2022/08/17 07:00:12;;;;;;;;;3.00;2.00;;;;;27.65;44.43;99720.22;4973805;28;45667;-76
2022/08/17 07:03:31;;;;;;;;;3.33;3.00;;;;;31.11;37.15;99796.31;4975954;28;45443;-76
2022/08/17 07:06:12;;;;;;;;;2.00;1.33;;;;;32.13;34.39;99644.28;4953246;28;45627;-76
2022/08/17 07:08:59;;;;;;;;;3.33;2.00;;;;;32.23;33.10;99637.25;4953583;28;45460;-76
2022/08/17 07:11:32;;;;;;;;;2.00;2.00;;;;;30.55;34.83;99691.28;4970357;28;45550;-76
2022/08/17 07:14:26;;;;;;;;;3.00;2.33;;;;;29.85;38.24;99824.13;4975708;28;45434;-76
2022/08/17 07:16:55;;;;;;;;;3.00;2.50;;;;;28.09;41.12;99773.31;4975114;28;46429;-75
2022/08/17 07:19:25;;;;;;;;;3.33;3.00;;;;;27.13;42.70;99764.03;4975303;28;45552;-73
2022/08/17 07:22:25;;;;;;;;;4.33;4.33;;;;;26.57;45.24;99801.56;4975607;28;45692;-74
2022/08/17 07:24:58;;;;;;;;;6.00;4.00;;;;;26.49;45.32;99827.00;4976300;28;45463;-77
2022/08/17 07:27:26;;;;;;;;;4.00;3.33;;;;;26.89;45.19;99834.00;4973822;28;45623;-80
2022/08/17 07:30:07;;;;;;;;;80.00;75.00;;;;;26.70;45.12;99801.00;4973411;28;45445;-79
2022/08/17 07:32:37;;;;;;;;;14.00;10.67;;;;;27.32;44.96;99833.72;4974869;28;45599;-76
2022/08/17 07:35:13;;;;;;;;;5.50;4.00;;;;;28.44;42.17;99824.25;4974157;28;45586;-76
2022/08/17 07:37:41;;;;;;;;;3.33;2.33;;;;;27.94;42.88;99810.81;4956926;28;47963;-78
2022/08/17 07:40:18;;;;;;;;;3.33;2.00;;;;;27.60;43.78;99832.31;4974591;28;45530;-76
2022/08/17 07:43:06;;;;;;;;;3.33;2.33;;;;;27.29;44.81;99836.53;4975508;28;45446;-77
2022/08/17 07:48:25;;;;;;;;;5.00;3.67;;;;;27.75;44.53;99840.41;4994614;28;45753;-80
2022/08/17 07:50:53;;;;;;;;;2.00;2.00;;;;;28.12;42.71;99843.00;4995112;28;45681;-79
2022/08/17 07:53:23;;;;;;;;;2.67;2.00;;;;;27.89;42.98;99817.38;4995602;28;46055;-79
2022/08/17 07:55:51;;;;;;;;;2.00;2.00;;;;;28.03;43.28;99836.28;4995497;28;45747;-77
2022/08/17 07:58:20;;;;;;;;;1.00;0.33;;;;;28.67;42.26;99829.22;4994916;28;45695;-77
2022/08/17 08:01:03;;;;;;;;;1.67;1.67;;;;;30.07;41.40;99847.88;4995134;28;45789;-77
2022/08/17 08:03:30;;;;;;;;;2.00;2.00;;;;;32.53;34.94;99840.50;4994467;28;45507;-77
2022/08/17 08:06:01;;;;;;;;;0.33;0.33;;;;;33.12;33.73;99853.34;4977321;28;45398;-76
2022/08/17 08:08:41;;;;;;;;;1.67;1.67;;;;;36.77;30.42;99852.19;4978576;28;47193;-78
2022/08/17 08:11:16;;;;;;;;;1.67;0.67;;;;;38.40;26.53;99855.97;4998713;28;45428;-78
2022/08/17 08:13:44;;;;;;;;;0.67;0.67;;;;;39.36;24.07;99847.34;4980529;28;45484;-76
2022/08/17 08:16:25;;;;;;;;;1.67;0.67;;;;;40.56;23.65;99847.66;4998668;28;45435;-79
2022/08/17 08:19:00;;;;;;;;;0.67;0.67;;;;;41.80;22.63;99854.22;4976298;28;47099;-78
2022/08/17 08:21:50;;;;;;;;;0.33;0.33;;;;;42.60;22.78;99861.56;4977640;28;45531;-78
2022/08/17 08:24:34;;;;;;;;;0.00;0.00;;;;;43.10;21.07;99861.16;4959579;28;45535;-77
2022/08/17 08:27:18;;;;;;;;;1.67;1.67;;;;;44.19;20.66;99863.69;4977960;28;45394;-79
2022/08/17 08:29:53;;;;;;;;;0.33;0.33;;;;;44.61;19.35;99870.44;4974699;28;47462;-79
2022/08/17 08:32:46;;;;;;;;;0.67;0.67;;;;;45.13;19.68;99851.97;4975440;28;45586;-78
2022/08/17 08:35:37;;;;;;;;;0.67;0.67;;;;;45.59;18.75;99857.09;4977224;28;45542;-78
2022/08/17 08:38:22;;;;;;;;;0.00;0.00;;;;;46.17;18.43;99870.72;4978410;28;45463;-79
2022/08/17 08:41:12;;;;;;;;;0.00;0.00;;;;;46.51;16.82;99873.69;4977323;28;46277;-78
2022/08/17 08:44:05;;;;;;;;;0.67;0.67;;;;;46.94;16.36;99871.56;4977080;28;45538;-80
2022/08/17 08:46:42;;;;;;;;;0.67;0.67;;;;;47.14;16.88;99882.66;4975291;28;45708;-79
2022/08/17 08:49:30;;;;;;;;;2.33;2.00;;;;;47.50;16.46;99861.25;4990411;28;45824;-78
2022/08/17 08:51:58;;;;;;;;;1.00;1.00;;;;;46.48;16.09;99871.34;4978030;28;45510;-75
2022/08/17 08:54:48;;;;;;;;;8.00;7.00;;;;;46.51;17.35;99885.59;4978308;28;45448;-74
2022/08/17 08:57:39;;;;;;;;;2.33;1.33;;;;;44.22;17.83;99873.47;4960431;28;45608;-79
2022/08/17 09:00:18;;;;;;;;;2.67;2.00;;;;;44.11;18.70;99887.69;4960703;28;45663;-75
2022/08/17 09:02:53;;;;;;;;;1.67;1.33;;;;;44.19;17.47;99880.22;4961096;28;46219;-75
2022/08/17 09:05:40;;;;;;;;;2.67;2.00;;;;;44.23;17.51;99886.16;4979027;28;45435;-77
2022/08/17 09:08:35;;;;;;;;;1.00;0.67;;;;;44.93;17.60;99889.47;4979177;28;45476;-78
2022/08/17 09:11:20;;;;;;;;;6.67;6.67;;;;;44.38;17.84;99891.69;4977753;28;45346;-78
2022/08/17 09:13:45;;;;;;;;;6.00;5.33;;;;;44.46;17.51;99881.41;4977900;28;46796;-77
2022/08/17 09:16:31;;;;;;;;;1.00;0.00;;;;;43.80;18.02;99867.50;4959831;28;45824;-76
2022/08/17 09:19:09;;;;;;;;;0.00;0.00;;;;;42.53;18.25;99756.25;4977186;28;45460;-77
2022/08/17 09:21:47;;;;;;;;;0.33;0.33;;;;;41.61;19.85;99899.34;4977437;28;46023;-78
2022/08/17 09:24:19;;;;;;;;;0.33;0.00;;;;;39.57;21.62;99813.38;4974808;28;45618;-76
2022/08/17 09:26:55;;;;;;;;;0.67;0.67;;;;;38.76;22.22;99894.31;4959013;28;45469;-77
2022/08/17 09:29:24;;;;;;;;;5.00;4.33;;;;;37.67;23.29;99896.59;4976134;28;45455;-77
2022/08/17 09:31:57;;;;;;;;;1.00;1.00;;;;;36.70;24.71;99915.47;4971033;28;45510;-74
2022/08/17 09:34:33;;;;;;;;;0.00;0.00;;;;;35.65;25.63;99908.19;4971336;28;46074;-76
2022/08/17 09:37:12;;;;;;;;;9.33;9.33;;;;;34.83;26.47;99900.53;4964624;28;45503;-75
2022/08/17 09:39:47;;;;;;;;;0.33;0.33;;;;;34.26;27.65;99903.25;4976494;28;45810;-80
2022/08/17 09:42:43;;;;;;;;;0.00;0.00;;;;;33.70;28.25;99883.25;4977460;28;45370;-82
2022/08/17 09:45:44;;;;;;;;;0.00;0.00;;;;;34.61;27.36;99885.13;4977387;28;45495;-78
2022/08/17 09:48:31;;;;;;;;;43.00;35.33;;;;;34.62;27.12;99847.03;4977637;28;45542;-79
2022/08/17 09:51:06;;;;;;;;;1.67;1.67;;;;;35.02;27.38;99894.47;4976582;28;45302;-81
2022/08/17 09:53:34;;;;;;;;;1.00;1.00;;;;;35.08;27.10;99896.66;4959679;28;45617;-79
2022/08/17 09:56:12;;;;;;;;;0.67;0.00;;;;;34.73;27.52;99907.69;4975268;28;46789;-79
2022/08/17 09:58:59;;;;;;;;;1.67;0.00;;;;;34.17;28.57;99909.38;4976765;28;45474;-80
2022/08/17 10:01:44;;;;;;;;;0.67;0.67;;;;;33.56;28.98;99900.53;4978054;28;45322;-78
2022/08/17 10:04:35;;;;;;;;;0.00;0.00;;;;;33.16;29.99;99915.22;4977676;28;45321;-81
2022/08/17 10:07:14;;;;;;;;;3.00;2.67;;;;;32.72;30.12;99908.53;4976523;28;46786;-79
2022/08/17 10:09:39;;;;;;;;;0.00;0.00;;;;;33.23;29.83;99912.94;4975763;28;45485;-78
2022/08/17 10:12:23;;;;;;;;;0.33;0.00;;;;;34.95;27.42;99904.09;4958046;28;45594;-76
2022/08/17 10:15:13;;;;;;;;;0.67;0.67;;;;;35.43;26.94;99910.00;4974665;28;45511;-77
2022/08/17 10:18:02;;;;;;;;;1.33;0.00;;;;;34.73;28.01;99897.69;4957289;28;45588;-79
2022/08/17 10:20:35;;;;;;;;;2.00;0.67;;;;;34.21;28.71;99921.69;4973215;28;45404;-75
2022/08/17 10:26:14;;;;;;;;;0.00;0.00;;;;;33.20;29.57;99921.28;4987071;28;45523;-76
2022/08/17 10:28:58;;;;;;;;;6.67;5.67;;;;;33.21;29.78;99910.34;4975017;28;45574;-75
2022/08/17 10:31:37;;;;;;;;;3.00;2.67;;;;;32.99;30.27;99908.34;4975029;28;45305;-74
2022/08/17 10:34:36;;;;;;;;;0.00;0.00;;;;;33.34;29.47;99923.81;4958119;28;45490;-74
2022/08/17 10:37:27;;;;;;;;;1.67;1.67;;;;;33.75;29.07;99925.25;4958618;28;45567;-74
2022/08/17 10:40:14;;;;;;;;;0.00;0.00;;;;;34.05;29.00;99921.16;4958045;28;48118;-74
2022/08/17 10:43:01;;;;;;;;;0.00;0.00;;;;;34.61;28.58;99899.53;4975749;28;45333;-76
2022/08/17 10:45:56;;;;;;;;;0.67;0.00;;;;;34.19;29.22;99922.81;4958445;28;45280;-75
2022/08/17 10:48:36;;;;;;;;;1.00;0.67;;;;;34.13;29.01;99907.00;4975307;28;45374;-75
2022/08/17 10:51:36;;;;;;;;;0.67;0.00;;;;;35.06;27.83;99929.34;4975322;28;45807;-75
2022/08/17 10:54:05;;;;;;;;;0.00;0.00;;;;;34.54;28.07;99924.56;4957924;28;45555;-74
2022/08/17 10:56:44;;;;;;;;;0.00;0.00;;;;;34.37;29.03;99928.63;4958050;28;45514;-75
2022/08/17 10:59:35;;;;;;;;;0.67;0.00;;;;;34.17;28.94;99930.22;4974951;28;45270;-77
2022/08/17 11:02:03;;;;;;;;;1.33;0.67;;;;;33.62;29.31;99913.63;4957151;28;47019;-74
2022/08/17 11:04:35;;;;;;;;;0.67;0.00;;;;;33.38;29.95;99938.84;4975220;28;45368;-75
2022/08/17 11:07:01;;;;;;;;;0.33;0.00;;;;;33.73;29.55;99915.53;4975445;28;45490;-76
2022/08/17 11:10:03;;;;;;;;;0.67;0.00;;;;;33.74;29.48;99942.47;4975022;28;45587;-76
2022/08/17 11:12:43;;;;;;;;;1.00;0.67;;;;;33.54;30.56;99916.03;4974465;28;45398;-77
2022/08/17 11:15:27;;;;;;;;;0.67;0.67;;;;;33.46;30.58;99925.59;4966669;28;45345;-73
2022/08/17 11:18:13;;;;;;;;;0.00;0.00;;;;;33.20;30.24;99934.81;4974866;28;45389;-77
2022/08/17 11:21:06;;;;;;;;;0.67;0.67;;;;;32.91;30.62;99945.94;4973747;28;45474;-76
2022/08/17 11:23:31;;;;;;;;;0.33;0.33;;;;;32.67;31.64;99937.75;4974408;28;45570;-75
2022/08/17 11:26:07;;;;;;;;;2.33;2.33;;;;;32.42;31.48;99931.34;4974811;28;45436;-74
2022/08/17 11:28:55;;;;;;;;;5.67;4.67;;;;;32.49;32.14;99935.34;4975143;28;45270;-75
2022/08/17 11:31:30;;;;;;;;;0.67;0.00;;;;;32.72;31.70;99937.41;4975117;28;45308;-76
2022/08/17 11:34:06;;;;;;;;;0.00;0.00;;;;;32.42;32.43;99941.31;4974781;28;46564;-75
2022/08/17 11:37:00;;;;;;;;;7.00;6.00;;;;;31.82;33.07;99938.19;4974571;28;45379;-76
2022/08/17 11:40:04;;;;;;;;;0.00;0.00;;;;;31.02;33.83;99948.88;4957063;28;45426;-77
2022/08/17 11:42:49;;;;;;;;;0.00;0.00;;;;;30.41;35.50;99944.66;4956732;28;45463;-75
2022/08/17 11:45:55;;;;;;;;;14.33;13.33;;;;;30.29;35.47;99948.94;4960577;28;47269;-77
2022/08/17 11:51:35;;;;;;;;;1.00;0.33;;;;;30.16;35.28;99938.03;4978536;28;45449;-75
2022/08/17 11:54:24;;;;;;;;;2.67;2.67;;;;;30.30;35.90;99947.94;4977214;28;45555;-76
2022/08/17 11:56:51;;;;;;;;;2.67;1.00;;;;;30.51;35.34;99933.19;4956692;28;47034;-75
2022/08/17 11:59:32;;;;;;;;;2.33;2.33;;;;;31.02;35.56;99948.88;4978805;28;45456;-77
2022/08/17 12:02:00;;;;;;;;;1.33;0.00;;;;;31.32;34.83;99916.31;4960314;28;45478;-73
2022/08/17 12:04:31;;;;;;;;;0.00;0.00;;;;;31.67;34.33;99948.19;4978392;28;45498;-78
2022/08/17 12:07:10;;;;;;;;;1.67;1.00;;;;;31.39;34.16;99941.03;4959620;28;46626;-76
2022/08/17 12:09:43;;;;;;;;;0.00;0.00;;;;;30.94;34.71;99943.13;4976642;28;45393;-74
2022/08/17 12:12:13;;;;;;;;;0.00;0.00;;;;;30.87;35.38;99936.34;4978281;28;45155;-75
2022/08/17 12:14:46;;;;;;;;;0.00;0.00;;;;;30.90;35.24;99918.16;4978350;28;45541;-78
2022/08/17 12:17:13;;;;;;;;;0.00;0.00;;;;;31.43;35.11;99939.00;4978985;28;46137;-77
2022/08/17 12:19:41;;;;;;;;;0.33;0.00;;;;;31.40;34.86;99901.44;4960744;28;45408;-78
2022/08/17 12:22:24;;;;;;;;;1.00;0.00;;;;;31.30;34.83;99941.69;4978513;28;45234;-77
2022/08/17 12:25:00;;;;;;;;;0.00;0.00;;;;;31.34;35.20;99951.28;4978587;28;45468;-75
2022/08/17 12:27:32;;;;;;;;;2.67;2.00;;;;;31.27;35.52;99941.84;4977686;28;46374;-74
2022/08/17 12:30:02;;;;;;;;;1.00;1.00;;;;;30.53;35.87;99930.41;4960592;28;45466;-75
2022/08/17 12:32:32;;;;;;;;;3.00;2.00;;;;;29.90;37.14;99947.69;4960656;28;45519;-76